createdAt,value
2018-09-23T00:02:09.079Z,100770.01
2018-09-23T00:04:33.028Z,100753.24
2018-09-23T00:06:56.979Z,100759.02
2018-09-23T00:09:20.825Z,100749.28
2018-09-23T00:11:44.714Z,100739.84
2018-09-23T00:14:09.120Z,100737.23
2018-09-23T00:16:33.016Z,100742.58
2018-09-23T00:18:56.907Z,100738.81
2018-09-23T00:21:20.812Z,100737.88
2018-09-23T00:23:44.656Z,100736.83
2018-09-23T00:26:08.507Z,100743.66
2018-09-23T00:28:32.438Z,100744.27
2018-09-23T00:30:56.316Z,100735.36
2018-09-23T00:33:20.202Z,100743.92
2018-09-23T00:35:44.054Z,100742.07
2018-09-23T00:38:07.933Z,100745.82
2018-09-23T00:40:31.816Z,100742.78
2018-09-23T00:42:55.702Z,100733.13
2018-09-23T00:45:19.581Z,100730.75
2018-09-23T00:47:43.439Z,100727.55
2018-09-23T00:50:07.652Z,100729.67
2018-09-23T00:52:31.515Z,100725.09
2018-09-23T00:54:55.568Z,100723.92
2018-09-23T00:57:19.461Z,100732.20
2018-09-23T00:59:43.307Z,100723.38
2018-09-23T01:02:07.242Z,100726.15
2018-09-23T01:04:31.123Z,100713.98
2018-09-23T01:06:55.045Z,100710.24
2018-09-23T01:09:18.943Z,100715.11
2018-09-23T01:11:42.796Z,100713.94
2018-09-23T01:14:06.673Z,100711.54
2018-09-23T01:16:30.533Z,100709.34
2018-09-23T01:18:54.511Z,100708.20
2018-09-23T01:21:18.406Z,100707.45
2018-09-23T01:23:42.330Z,100705.95
2018-09-23T01:26:06.486Z,100703.42
2018-09-23T01:28:30.354Z,100690.72
2018-09-23T01:30:54.364Z,100696.73
2018-09-23T01:33:18.224Z,100702.72
2018-09-23T01:35:42.097Z,100704.09
2018-09-23T01:38:06.131Z,100700.52
2018-09-23T01:40:29.982Z,100700.73
2018-09-23T01:42:53.868Z,100701.94
2018-09-23T01:45:17.849Z,100711.34
2018-09-23T01:47:41.653Z,100702.30
2018-09-23T01:50:05.540Z,100703.73
2018-09-23T01:52:29.416Z,100709.17
2018-09-23T01:54:53.286Z,100707.44
2018-09-23T01:57:17.227Z,100693.19
2018-09-23T01:59:41.093Z,100690.83
2018-09-23T02:02:04.968Z,100683.25
2018-09-23T02:04:28.824Z,100680.02
2018-09-23T02:06:52.724Z,100677.23
2018-09-23T02:09:16.641Z,100668.59
2018-09-23T02:11:40.525Z,100664.81
2018-09-23T02:14:04.398Z,100660.50
2018-09-23T02:16:28.291Z,100660.17
2018-09-23T02:18:52.248Z,100659.64
2018-09-23T02:21:16.296Z,100662.05
2018-09-23T02:23:40.143Z,100658.11
2018-09-23T02:26:04.040Z,100659.00
2018-09-23T02:28:27.914Z,100654.20
2018-09-23T02:30:51.766Z,100647.92
2018-09-23T02:33:15.741Z,100647.46
2018-09-23T02:35:39.616Z,100642.27
2018-09-23T02:38:03.473Z,100641.91
2018-09-23T02:40:27.356Z,100642.72
2018-09-23T02:42:51.269Z,100649.02
2018-09-23T02:45:15.233Z,100648.70
2018-09-23T02:47:39.119Z,100637.28
2018-09-23T02:50:02.996Z,100632.00
2018-09-23T02:52:26.922Z,100632.81
2018-09-23T02:54:50.782Z,100642.53
2018-09-23T02:57:14.757Z,100644.52
2018-09-23T02:59:38.635Z,100638.18
2018-09-23T03:02:02.575Z,100631.34
2018-09-23T03:04:26.497Z,100623.73
2018-09-23T03:06:50.376Z,100618.08
2018-09-23T03:09:14.370Z,100623.81
2018-09-23T03:11:38.214Z,100637.28
2018-09-23T03:14:02.099Z,100635.70
2018-09-23T03:16:25.957Z,100628.62
2018-09-23T03:18:49.856Z,100633.02
2018-09-23T03:21:13.851Z,100637.00
2018-09-23T03:23:37.709Z,100624.63
2018-09-23T03:26:01.531Z,100631.58
2018-09-23T03:28:25.498Z,100629.22
2018-09-23T03:30:49.463Z,100635.66
2018-09-23T03:33:13.298Z,100630.71
2018-09-23T03:35:37.160Z,100618.44
2018-09-23T03:38:01.011Z,100613.25
2018-09-23T03:40:24.974Z,100613.63
2018-09-23T03:42:48.949Z,100616.22
2018-09-23T03:45:12.799Z,100610.00
2018-09-23T03:47:36.693Z,100612.38
2018-09-23T03:50:00.551Z,100602.24
2018-09-23T03:52:24.478Z,100597.22
2018-09-23T03:54:48.324Z,100589.11
2018-09-23T03:57:12.199Z,100594.20
2018-09-23T03:59:36.083Z,100586.79
2018-09-23T04:01:59.944Z,100576.37
2018-09-23T04:04:23.878Z,100577.26
2018-09-23T04:06:47.715Z,100583.79
2018-09-23T04:09:11.594Z,100579.41
2018-09-23T04:11:35.474Z,100577.19
2018-09-23T04:13:59.373Z,100579.27
2018-09-23T04:16:23.272Z,100575.23
2018-09-23T04:18:47.150Z,100576.55
2018-09-23T04:21:11.159Z,100582.80
2018-09-23T04:23:35.049Z,100583.83
2018-09-23T04:25:58.911Z,100579.99
2018-09-23T04:28:22.792Z,100583.26
2018-09-23T04:30:46.648Z,100577.79
2018-09-23T04:33:10.599Z,100579.31
2018-09-23T04:35:34.449Z,100570.47
2018-09-23T04:37:58.315Z,100569.61
2018-09-23T04:40:22.187Z,100565.01
2018-09-23T04:42:46.047Z,100563.06
2018-09-23T04:45:10.050Z,100558.53
2018-09-23T04:47:33.937Z,100552.06
2018-09-23T04:49:57.811Z,100547.75
2018-09-23T04:52:21.809Z,100546.69
2018-09-23T04:54:45.683Z,100546.02
2018-09-23T04:57:09.940Z,100535.84
2018-09-23T04:59:33.790Z,100535.19
2018-09-23T05:01:57.652Z,100526.09
2018-09-23T05:04:22.020Z,100540.70
2018-09-23T05:06:45.874Z,100530.72
2018-09-23T05:09:10.699Z,100528.14
2018-09-23T05:11:34.949Z,100537.18
2018-09-23T05:13:58.822Z,100532.24
2018-09-23T05:16:22.675Z,100528.98
2018-09-23T05:18:46.586Z,100521.83
2018-09-23T05:21:10.452Z,100519.13
2018-09-23T05:23:34.690Z,100529.62
2018-09-23T05:25:58.549Z,100533.92
2018-09-23T05:28:22.471Z,100521.16
2018-09-23T05:30:46.377Z,100516.21
2018-09-23T05:33:10.234Z,100525.82
2018-09-23T05:35:34.520Z,100533.48
2018-09-23T05:37:58.576Z,100530.74
2018-09-23T05:40:22.447Z,100526.84
2018-09-23T05:42:46.329Z,100524.14
2018-09-23T05:45:10.924Z,100527.48
2018-09-23T05:47:34.798Z,100514.23
2018-09-23T05:49:58.648Z,100514.23
2018-09-23T05:52:22.977Z,100522.29
2018-09-23T05:54:46.821Z,100520.89
2018-09-23T05:57:10.694Z,100527.50
2018-09-23T05:59:34.572Z,100521.59
2018-09-23T06:01:58.437Z,100511.14
2018-09-23T06:04:22.385Z,100512.16
2018-09-23T06:06:46.257Z,100517.58
2018-09-23T06:09:10.108Z,100521.80
2018-09-23T06:11:34.020Z,100522.42
2018-09-23T06:13:57.926Z,100526.81
2018-09-23T06:16:21.884Z,100522.92
2018-09-23T06:18:45.753Z,100527.75
2018-09-23T06:21:09.726Z,100518.02
2018-09-23T06:23:33.611Z,100509.70
2018-09-23T06:25:57.545Z,100503.03
2018-09-23T06:28:21.726Z,100502.16
2018-09-23T06:30:45.586Z,100509.48
2018-09-23T06:33:09.469Z,100509.47
2018-09-23T06:35:33.375Z,100504.19
2018-09-23T06:37:57.249Z,100513.94
2018-09-23T06:40:21.167Z,100508.78
2018-09-23T06:42:45.035Z,100511.28
2018-09-23T06:45:09.804Z,100512.86
2018-09-23T06:47:33.682Z,100512.28
2018-09-23T06:49:57.569Z,100518.48
2018-09-23T06:52:21.427Z,100511.76
2018-09-23T06:54:45.427Z,100507.42
2018-09-23T06:57:09.299Z,100513.57
2018-09-23T06:59:33.198Z,100507.44
2018-09-23T07:01:57.140Z,100508.83
2018-09-23T07:04:21.012Z,100511.06
2018-09-23T07:06:44.859Z,100518.17
2018-09-23T07:09:08.774Z,100517.33
2018-09-23T07:11:32.688Z,100514.81
2018-09-23T07:13:56.586Z,100506.25
2018-09-23T07:16:20.463Z,100502.00
2018-09-23T07:18:44.360Z,100499.25
2018-09-23T07:21:08.268Z,100489.63
2018-09-23T07:23:32.161Z,100477.37
2018-09-23T07:25:56.084Z,100480.48
2018-09-23T07:28:19.920Z,100481.07
2018-09-23T07:30:43.822Z,100480.20
2018-09-23T07:33:07.695Z,100485.83
2018-09-23T07:35:31.603Z,100501.63
2018-09-23T07:37:55.531Z,100501.06
2018-09-23T07:40:20.403Z,100492.69
2018-09-23T07:42:44.284Z,100477.10
2018-09-23T07:45:08.206Z,100479.30
2018-09-23T07:47:32.080Z,100479.23
2018-09-23T07:49:55.994Z,100483.45
2018-09-23T07:52:19.883Z,100494.81
2018-09-23T07:54:43.764Z,100492.66
2018-09-23T07:57:07.643Z,100488.38
2018-09-23T07:59:31.533Z,100490.82
2018-09-23T08:01:55.496Z,100496.69
2018-09-23T08:04:19.374Z,100490.45
2018-09-23T08:06:43.292Z,100486.88
2018-09-23T08:09:07.897Z,100487.12
2018-09-23T08:11:31.997Z,100477.86
2018-09-23T08:13:56.319Z,100457.99
2018-09-23T08:16:19.866Z,100445.20
2018-09-23T08:18:43.771Z,100436.39
2018-09-23T08:21:07.716Z,100447.86
2018-09-23T08:23:31.640Z,100461.84
2018-09-23T08:25:55.566Z,100460.37
2018-09-23T08:28:19.462Z,100451.16
2018-09-23T08:30:43.372Z,100437.99
2018-09-23T08:33:07.325Z,100421.51
2018-09-23T08:35:31.139Z,100423.39
2018-09-23T08:37:55.143Z,100428.15
2018-09-23T08:40:19.000Z,100420.34
2018-09-23T08:42:42.920Z,100425.02
2018-09-23T08:45:06.811Z,100427.14
2018-09-23T08:47:30.695Z,100430.40
2018-09-23T08:49:54.606Z,100436.87
2018-09-23T08:52:18.600Z,100430.23
2018-09-23T08:54:42.456Z,100431.90
2018-09-23T08:57:06.343Z,100436.08
2018-09-23T08:59:30.198Z,100436.09
2018-09-23T09:01:54.141Z,100426.97
2018-09-23T09:04:18.026Z,100430.09
2018-09-23T09:06:41.888Z,100432.75
2018-09-23T09:09:07.141Z,100431.28
2018-09-23T09:11:31.005Z,100418.38
2018-09-23T09:13:54.938Z,100409.29
2018-09-23T09:16:18.826Z,100392.03
2018-09-23T09:18:42.972Z,100387.33
2018-09-23T09:21:06.785Z,100384.30
2018-09-23T09:23:30.900Z,100375.60
2018-09-23T09:25:54.867Z,100387.19
2018-09-23T09:28:18.862Z,100381.36
2018-09-23T09:30:42.763Z,100372.03
2018-09-23T09:33:06.702Z,100380.27
2018-09-23T09:35:30.586Z,100376.45
2018-09-23T09:37:54.526Z,100365.81
2018-09-23T09:40:18.421Z,100356.56
2018-09-23T09:42:42.431Z,100341.25
2018-09-23T09:45:06.286Z,100339.97
2018-09-23T09:47:30.180Z,100332.23
2018-09-23T09:49:54.059Z,100308.06
2018-09-23T09:52:17.953Z,100309.34
2018-09-23T09:54:41.895Z,100302.50
2018-09-23T09:57:05.985Z,100322.72
2018-09-23T09:59:29.846Z,100322.34
2018-09-23T10:01:53.790Z,100329.64
2018-09-23T10:04:17.763Z,100344.06
2018-09-23T10:06:41.617Z,100342.33
2018-09-23T10:09:07.533Z,100339.89
2018-09-23T10:11:31.474Z,100338.31
2018-09-23T10:13:55.411Z,100330.45
2018-09-23T10:16:19.333Z,100326.23
2018-09-23T10:18:43.246Z,100321.13
2018-09-23T10:21:07.173Z,100299.99
2018-09-23T10:23:32.054Z,100286.23
2018-09-23T10:25:56.259Z,100296.36
2018-09-23T10:28:20.118Z,100295.96
2018-09-23T10:30:44.021Z,100282.12
2018-09-23T10:33:08.101Z,100277.95
2018-09-23T10:35:32.024Z,100278.84
2018-09-23T10:37:56.320Z,100260.84
2018-09-23T10:40:20.316Z,100264.63
2018-09-23T10:42:44.470Z,100256.45
2018-09-23T10:45:08.606Z,100247.84
2018-09-23T10:47:33.569Z,100257.66
2018-09-23T10:49:57.844Z,100273.63
2018-09-23T10:52:21.717Z,100289.98
2018-09-23T10:54:45.622Z,100304.64
2018-09-23T10:57:09.538Z,100312.59
2018-09-23T10:59:33.578Z,100289.77
2018-09-23T11:01:57.709Z,100288.91
2018-09-23T11:04:21.663Z,100292.29
2018-09-23T11:06:45.555Z,100285.36
2018-09-23T11:09:09.460Z,100279.23
2018-09-23T11:11:33.317Z,100252.61
2018-09-23T11:13:57.611Z,100238.51
2018-09-23T11:16:21.535Z,100225.09
2018-09-23T11:18:45.433Z,100222.40
2018-09-23T11:21:09.372Z,100230.40
2018-09-23T11:23:33.389Z,100230.91
2018-09-23T11:25:57.463Z,100226.31
2018-09-23T11:28:21.391Z,100226.48
2018-09-23T11:30:45.311Z,100231.19
2018-09-23T11:33:09.251Z,100243.04
2018-09-23T11:35:33.163Z,100244.63
2018-09-23T11:37:57.258Z,100247.09
2018-09-23T11:40:21.144Z,100245.85
2018-09-23T11:42:45.125Z,100228.61
2018-09-23T11:45:09.002Z,100217.45
2018-09-23T11:47:32.936Z,100217.17
2018-09-23T11:49:56.987Z,100214.08
2018-09-23T11:52:20.902Z,100204.66
2018-09-23T11:54:44.796Z,100196.25
2018-09-23T11:57:08.719Z,100208.66
2018-09-23T11:59:32.761Z,100201.97
2018-09-23T12:01:58.564Z,100178.39
2018-09-23T12:04:22.507Z,100165.94
2018-09-23T12:06:46.407Z,100178.56
2018-09-23T12:09:12.051Z,100146.25
2018-09-23T12:11:35.896Z,100171.20
2018-09-23T12:13:59.934Z,100189.02
2018-09-23T12:16:23.844Z,100180.05
2018-09-23T12:18:47.814Z,100156.52
2018-09-23T12:21:11.808Z,100151.86
2018-09-23T12:23:35.695Z,100145.19
2018-09-23T12:25:59.828Z,100154.33
2018-09-23T12:28:23.920Z,100148.08
2018-09-23T12:30:47.805Z,100149.34
2018-09-23T12:33:11.847Z,100161.08
2018-09-23T12:35:35.721Z,100153.13
2018-09-23T12:37:59.739Z,100132.03
2018-09-23T12:40:23.681Z,100134.75
2018-09-23T12:42:47.848Z,100127.63
2018-09-23T12:45:11.771Z,100115.31
2018-09-23T12:47:35.653Z,100111.98
2018-09-23T12:49:59.598Z,100090.82
2018-09-23T12:52:23.484Z,100077.98
2018-09-23T12:54:47.729Z,100080.63
2018-09-23T12:57:11.710Z,100078.28
2018-09-23T12:59:35.663Z,100070.04
2018-09-23T13:01:59.650Z,100058.45
2018-09-23T13:04:23.551Z,100065.34
2018-09-23T13:06:47.601Z,100058.05
2018-09-23T13:09:11.531Z,100025.26
2018-09-23T13:11:35.559Z,100013.80
2018-09-23T13:13:59.486Z,100011.05
2018-09-23T13:16:23.430Z,100004.61
2018-09-23T13:18:47.432Z,100021.02
2018-09-23T13:21:11.391Z,100029.98
2018-09-23T13:23:35.343Z,100061.30
2018-09-23T13:25:59.575Z,100077.33
2018-09-23T13:28:23.479Z,100049.16
2018-09-23T13:30:47.386Z,100043.28
2018-09-23T13:33:11.320Z,100085.27
2018-09-23T13:37:58.191Z,100029.27
2018-09-23T13:40:22.107Z,99982.78
2018-09-23T13:42:46.027Z,99974.27
2018-09-23T13:45:09.977Z,99984.67
2018-09-23T13:47:33.927Z,99996.52
2018-09-23T13:49:57.869Z,100013.61
2018-09-23T13:52:21.815Z,99994.12
2018-09-23T13:54:45.792Z,99956.71
2018-09-23T13:57:09.770Z,99937.64
2018-09-23T13:59:33.672Z,99962.19
2018-09-23T14:01:57.680Z,100026.60
2018-09-23T14:04:21.615Z,100076.68
2018-09-23T14:06:45.584Z,100071.92
2018-09-23T14:09:09.469Z,100029.06
2018-09-23T14:11:33.586Z,99949.33
2018-09-23T14:13:57.574Z,99946.52
2018-09-23T14:16:21.492Z,99956.41
2018-09-23T14:18:45.407Z,99948.55
2018-09-23T14:21:09.376Z,99943.96
2018-09-23T14:23:33.293Z,99913.08
2018-09-23T14:25:57.259Z,99933.70
2018-09-23T14:28:21.190Z,99968.03
2018-09-23T14:30:45.307Z,99948.48
2018-09-23T14:33:09.247Z,99941.79
2018-09-23T14:35:33.148Z,99938.34
2018-09-23T14:37:57.103Z,99958.14
2018-09-23T14:40:20.997Z,99962.41
2018-09-23T14:42:44.996Z,99972.59
2018-09-23T14:45:08.909Z,99944.53
2018-09-23T14:47:32.856Z,99936.36
2018-09-23T14:49:56.827Z,99938.53
2018-09-23T14:52:20.751Z,99930.86
2018-09-23T14:54:44.872Z,99961.13
2018-09-23T14:57:08.629Z,99984.77
2018-09-23T14:59:32.617Z,99992.73
2018-09-23T15:01:56.544Z,99995.72
2018-09-23T15:04:20.467Z,100007.08
2018-09-23T15:06:44.410Z,100014.75
2018-09-23T15:09:09.888Z,100022.17
2018-09-23T15:11:33.944Z,100024.84
2018-09-23T15:13:57.886Z,100020.75
2018-09-23T15:16:21.952Z,100011.62
2018-09-23T15:18:46.056Z,100018.38
2018-09-23T15:21:09.943Z,99999.06
2018-09-23T15:23:33.911Z,99962.72
2018-09-23T15:25:57.790Z,99948.76
2018-09-23T15:28:21.732Z,99952.66
2018-09-23T15:30:45.653Z,99941.86
2018-09-23T15:33:09.538Z,99945.47
2018-09-23T15:35:33.548Z,99989.05
2018-09-23T15:37:57.460Z,99994.98
2018-09-23T15:40:21.372Z,99977.48
2018-09-23T15:42:45.314Z,99940.69
2018-09-23T15:45:09.240Z,99934.77
2018-09-23T15:47:33.149Z,99947.79
2018-09-23T15:49:57.064Z,99947.73
2018-09-23T15:52:21.020Z,99908.80
2018-09-23T15:54:45.054Z,99957.34
2018-09-23T15:57:09.105Z,99963.42
2018-09-23T15:59:33.007Z,99961.19
2018-09-23T16:01:56.944Z,99915.78
2018-09-23T16:04:21.210Z,99940.60
2018-09-23T16:06:45.168Z,99949.86
2018-09-23T16:09:09.702Z,99965.81
2018-09-23T16:11:33.823Z,100002.80
2018-09-23T16:13:57.834Z,99951.06
2018-09-23T16:16:21.728Z,99985.17
2018-09-23T16:18:45.795Z,99985.45
2018-09-23T16:21:09.567Z,99975.64
2018-09-23T16:23:33.643Z,99991.50
2018-09-23T16:25:57.639Z,99993.80
2018-09-23T16:28:21.536Z,100005.59
2018-09-23T16:30:45.478Z,100028.03
2018-09-23T16:33:09.326Z,100039.45
2018-09-23T16:35:33.329Z,100050.64
2018-09-23T16:37:57.681Z,100043.52
2018-09-23T16:40:21.576Z,100048.23
2018-09-23T16:42:45.507Z,100051.70
2018-09-23T16:45:09.523Z,100074.83
2018-09-23T16:47:33.486Z,100102.59
2018-09-23T16:49:57.427Z,100106.95
2018-09-23T16:52:21.439Z,100098.36
2018-09-23T16:54:45.430Z,100126.96
2018-09-23T16:57:09.296Z,100132.84
2018-09-23T16:59:33.225Z,100121.23
2018-09-23T17:01:57.123Z,100119.81
2018-09-23T17:04:21.124Z,100111.69
2018-09-23T17:06:45.269Z,100103.95
2018-09-23T17:09:10.097Z,100106.69
2018-09-23T17:11:34.042Z,100113.69
2018-09-23T17:13:57.923Z,100131.55
2018-09-23T17:16:22.110Z,100137.75
2018-09-23T17:18:46.004Z,100137.54
2018-09-23T17:21:09.891Z,100135.97
2018-09-23T17:23:33.859Z,100138.36
2018-09-23T17:25:57.972Z,100152.14
2018-09-23T17:28:21.913Z,100150.64
2018-09-23T17:30:45.950Z,100153.38
2018-09-23T17:33:09.929Z,100160.39
2018-09-23T17:35:33.837Z,100163.41
2018-09-23T17:37:57.881Z,100169.72
2018-09-23T17:40:21.757Z,100178.17
2018-09-23T17:42:45.671Z,100178.47
2018-09-23T17:45:09.610Z,100188.77
2018-09-23T17:47:33.507Z,100199.05
2018-09-23T17:49:57.575Z,100202.20
2018-09-23T17:52:21.492Z,100209.82
2018-09-23T17:54:45.447Z,100209.80
2018-09-23T17:57:09.409Z,100209.98
2018-09-23T17:59:33.332Z,100215.48
2018-09-23T18:01:57.454Z,100219.03
2018-09-23T18:04:21.314Z,100231.55
2018-09-23T18:06:45.233Z,100236.13
2018-09-23T18:09:09.909Z,100250.25
2018-09-23T18:11:33.829Z,100249.70
2018-09-23T18:13:57.905Z,100261.35
2018-09-23T18:16:22.075Z,100271.03
2018-09-23T18:18:47.144Z,100283.68
2018-09-23T18:21:11.067Z,100283.98
2018-09-23T18:23:35.021Z,100277.27
2018-09-23T18:25:59.054Z,100288.34
2018-09-23T18:28:22.975Z,100294.56
2018-09-23T18:30:46.897Z,100289.38
2018-09-23T18:33:10.818Z,100290.52
2018-09-23T18:35:34.687Z,100296.56
2018-09-23T18:37:58.619Z,100301.98
2018-09-23T18:40:22.539Z,100313.23
2018-09-23T18:42:46.409Z,100328.25
2018-09-23T18:45:10.353Z,100331.34
2018-09-23T18:47:34.657Z,100338.92
2018-09-23T18:49:58.876Z,100337.68
2018-09-23T18:52:22.784Z,100333.67
2018-09-23T18:54:52.097Z,100343.22
2018-09-23T18:57:16.069Z,100342.19
2018-09-23T18:59:39.943Z,100334.53
2018-09-23T19:02:04.045Z,100341.44
2018-09-23T19:04:27.970Z,100349.52
2018-09-23T19:06:51.943Z,100357.45
2018-09-23T19:09:15.851Z,100363.47
2018-09-23T19:11:39.746Z,100369.03
2018-09-23T19:14:03.732Z,100371.77
2018-09-23T19:16:30.099Z,100375.53
2018-09-23T19:18:54.893Z,100367.45
2018-09-23T19:21:18.763Z,100370.00
2018-09-23T19:23:42.713Z,100374.61
2018-09-23T19:26:06.758Z,100377.34
2018-09-23T19:28:30.744Z,100388.17
2018-09-23T19:30:54.630Z,100395.65
2018-09-23T19:33:18.541Z,100403.33
2018-09-23T19:35:42.462Z,100405.61
2018-09-23T19:38:06.407Z,100414.45
2018-09-23T19:40:30.330Z,100423.06
2018-09-23T19:42:54.348Z,100436.47
2018-09-23T19:45:18.235Z,100437.44
2018-09-23T19:47:42.165Z,100439.25
2018-09-23T19:50:06.052Z,100445.84
2018-09-23T19:52:30.006Z,100446.31
2018-09-23T19:54:53.950Z,100448.72
2018-09-23T19:57:17.849Z,100449.29
2018-09-23T19:59:41.778Z,100445.77
2018-09-23T20:02:05.680Z,100453.11
2018-09-23T20:04:29.638Z,100463.78
2018-09-23T20:06:53.580Z,100466.99
2018-09-23T20:09:17.442Z,100482.06
2018-09-23T20:11:41.370Z,100483.45
2018-09-23T20:14:05.293Z,100488.72
2018-09-23T20:16:29.438Z,100498.61
2018-09-23T20:18:53.346Z,100496.54
2018-09-23T20:21:17.234Z,100507.36
2018-09-23T20:23:41.180Z,100512.88
2018-09-23T20:26:05.084Z,100516.66
2018-09-23T20:28:28.979Z,100528.03
2018-09-23T20:30:52.886Z,100534.71
2018-09-23T20:33:16.790Z,100546.40
2018-09-23T20:35:40.722Z,100561.27
2018-09-23T20:38:04.608Z,100551.25
2018-09-23T20:40:28.507Z,100551.56
2018-09-23T20:42:52.423Z,100558.86
2018-09-23T20:45:16.333Z,100559.78
2018-09-23T20:47:40.280Z,100569.89
2018-09-23T20:50:04.131Z,100577.67
2018-09-23T20:52:28.030Z,100585.44
2018-09-23T20:54:51.900Z,100590.13
2018-09-23T20:57:15.811Z,100598.19
2018-09-23T20:59:39.710Z,100593.77
2018-09-23T21:02:03.603Z,100590.23
2018-09-23T21:04:27.513Z,100600.16
2018-09-23T21:06:51.439Z,100608.00
2018-09-23T21:09:15.313Z,100614.06
2018-09-23T21:11:39.283Z,100617.09
2018-09-23T21:14:03.149Z,100625.17
2018-09-23T21:16:27.190Z,100630.95
2018-09-23T21:18:51.101Z,100645.33
2018-09-23T21:21:14.995Z,100634.13
2018-09-23T21:23:39.006Z,100642.06
2018-09-23T21:26:02.896Z,100649.02
2018-09-23T21:28:26.798Z,100656.03
2018-09-23T21:30:50.750Z,100660.65
2018-09-23T21:33:14.593Z,100665.18
2018-09-23T21:35:38.459Z,100667.30
2018-09-23T21:38:02.356Z,100667.84
2018-09-23T21:40:26.201Z,100681.23
2018-09-23T21:42:50.435Z,100688.54
2018-09-23T21:45:14.328Z,100702.70
2018-09-23T21:47:38.197Z,100704.75
2018-09-23T21:50:02.129Z,100708.55
2018-09-23T21:52:26.080Z,100705.88
2018-09-23T21:54:49.976Z,100721.17
2018-09-23T21:57:13.840Z,100712.62
2018-09-23T21:59:37.718Z,100729.70
2018-09-23T22:02:01.629Z,100723.09
2018-09-23T22:04:25.784Z,100725.75
2018-09-23T22:06:49.798Z,100735.08
2018-09-23T22:09:13.652Z,100741.10
2018-09-23T22:11:37.521Z,100744.81
2018-09-23T22:14:01.457Z,100738.92
2018-09-23T22:16:25.324Z,100745.72
2018-09-23T22:18:49.188Z,100746.86
2018-09-23T22:21:13.046Z,100756.02
2018-09-23T22:23:36.998Z,100762.94
2018-09-23T22:26:00.920Z,100769.16
2018-09-23T22:28:24.744Z,100776.54
2018-09-23T22:30:48.636Z,100777.10
2018-09-23T22:33:12.490Z,100779.87
2018-09-23T22:35:36.440Z,100794.23
2018-09-23T22:38:00.291Z,100793.82
2018-09-23T22:40:24.139Z,100798.81
2018-09-23T22:42:48.100Z,100797.72
2018-09-23T22:45:11.953Z,100802.73
2018-09-23T22:47:36.160Z,100818.98
2018-09-23T22:50:00.139Z,100819.53
2018-09-23T22:52:24.070Z,100824.45
2018-09-23T22:54:47.979Z,100833.73
2018-09-23T22:57:11.842Z,100830.41
2018-09-23T22:59:35.667Z,100835.59
2018-09-23T23:01:59.523Z,100825.07
2018-09-23T23:04:23.360Z,100830.02
2018-09-23T23:06:47.326Z,100840.56
2018-09-23T23:09:11.178Z,100845.23
2018-09-23T23:11:35.025Z,100835.31
2018-09-23T23:13:58.880Z,100819.66
2018-09-23T23:16:22.747Z,100824.51
2018-09-23T23:18:46.618Z,100830.74
2018-09-23T23:21:10.466Z,100848.67
2018-09-23T23:23:34.431Z,100850.35
2018-09-23T23:25:58.327Z,100856.34
2018-09-23T23:28:22.184Z,100868.05
2018-09-23T23:30:46.052Z,100868.80
2018-09-23T23:33:09.907Z,100873.69
2018-09-23T23:35:33.771Z,100876.81
2018-09-23T23:37:57.698Z,100885.42
2018-09-23T23:40:21.519Z,100893.17
2018-09-23T23:42:45.408Z,100900.04
2018-09-23T23:45:09.223Z,100906.48
2018-09-23T23:47:33.103Z,100905.02
2018-09-23T23:49:56.991Z,100907.15
2018-09-23T23:52:20.840Z,100909.52
2018-09-23T23:54:44.738Z,100916.48
2018-09-23T23:57:08.566Z,100923.39
2018-09-23T23:59:32.412Z,100920.68
